SVPL1: Red River at Shreveport Site 2

                                SHEF ID:       SVPL1     Red River at Shreveport Site 2
STATION TYPE:

PRECIP STAGE RIV-FLOW VOLTAGE
in ft cfs volt
Ccp-Rev Ccp-Rev Ccp-Rev Ccp-Rev
(America/Chicago)
07/18 00:00 0.00 13.80 2120 12.84
07/18 01:00 0.00 13.82 2208 12.83
07/18 02:00 0.00 13.84 2296 12.82
07/18 03:00 0.00 13.91 2604 12.82
07/18 04:00 0.00 13.85 2340 12.80
07/18 05:00 0.00 13.91 2604 12.80
07/18 06:00 0.00 13.90 2560 12.80
07/18 07:00 0.00 14.00 3000 12.82
07/18 08:00 0.00 13.93 2692 13.26
07/18 09:00 0.00 13.97 2868 13.05
07/18 10:00 0.00 13.96 2824 13.09
07/18 11:00 0.00 13.98 2912 13.06
07/18 12:00 0.00 13.97 2868 13.07
07/18 13:00 0.00 14.05 4000 13.10
07/18 14:00 0.00 14.07 4400 13.06
07/18 15:00 0.00 14.08 4600 13.08
07/18 16:00 0.00 14.08 4600 13.09
07/18 17:00 0.00 14.10 5000 13.07
07/18 18:00 0.00 14.11 5125 13.06
07/18 19:00 0.00 14.11 5125 12.93
07/18 20:00 0.00 14.12 5250 12.88
07/18 21:00 0.00 14.14 5500 12.86
07/18 22:00 0.00 14.16 5750 12.86
07/18 23:00 0.00 14.14 5500 12.86
Data processed at Sun 19Jul2026 04:24 GMT

NOTICE: If you are parsing this page

Please convert to using our Data API. Starting early 2026 we will be migrating to: https://water.usace.army.mil with modern pages rendered in JavaScript. When this migration completes you will no longer be able to scrape this page! CWMSDataAPI (CDA)

Timeseries IDs (TSIDs)

TSIDs used from left to right in the data table
SHRE.Precip-Inc.Total.1Hour.1Hour.Ccp-Rev
SHRE.Stage.Inst.1Hour.0.Ccp-Rev
SHRE.Flow.Inst.1Hour.0.Ccp-Rev
SHRE.Volt-Battery.Inst.1Hour.0.Ccp-Rev

                            

All information presented herein is the property of the government of the United States of America and may be revised or deleted at any time without prior notice. Dissemination of this information without the expressed written consent of the Public Affairs Office, Tulsa District U.S. Army Corps of Engineers is strictly prohibited. These data are gathered electronically and, as presented, have NOT undergone any form of quality control. These data are NOT guaranteed to be valid or correct.